Light rain, thunderstorms likely
Mixed with cirrus with some thunderstorm clouds possible
Mixed with cirrus with some thunderstorm clouds possible
Rain, thunderstorms likely
Rain, thunderstorms likely
Rain, thunderstorms likely
Light rain, thunderstorms likely
(°C)
20°
20°
20°
20°
21°
21°
22°
22°
24°
24°
25°
25°
25°
25°
(°C)
18°
19°
19°
21°
23°
25°
25°
ENE
E
ESE
ESE
SE
SE
SE
(km/h)
22-36
22-34
23-40
22-40
22-40
22-40
21-40
(mm)
2.1
0
0
7.5
5.1
3
1.7
(%)
65
43
35
26
25
25
25

Sun elevation

/ 58.7°
sun-icon
UV 6
06:20
20:30
Waning gibbous moon (241°)
00:45
10:59

METAR for Coppell (KDFW)

Time Conditions Temperature/
Dewpoint
Wind Visibility Weather Clouds Pressure Change Raw
VFR 18.9°C / 16.7°C 120º 26kt Gust 39kt >10km in the Vicinity Thunderstorm 2.03mm precipitation Few Clouds 4500ft
Scattered Clouds 9000ft
Broken Clouds 12000ft
Broken Clouds 15000ft
1017 - KDFW 281553Z 12026G39KT 10SM VCTS FEW045 SCT090 BKN120 BKN150 19/17 A3008 RMK AO2 PK WND 11040/1537 RAE52 TSE27E41 SLP178 OCNL LTGIC DSNT NE-SE-SW CB DSNT NE-SE-SW MOV SE P0008 T01890167 $
VFR 18.9°C / 16.7°C 90º 21kt Gust 37kt >10km Light Rain 1.78mm precipitation Few Clouds 7000ft
Broken Clouds 9500ft
Overcast 12000ft
- KDFW 281527Z 09021G37KT 9SM -RA FEW070 BKN095 OVC120 19/17 A3014 RMK AO2 PK WND 08037/1527 TSE27 PRESFR OCNL LTGIC DSNT NE-SE TS MOVD SE CB DSNT NE-SE MOV SE P0007 T01890167 $
VFR 19.4°C / 17.2°C 70º 12kt Gust 21kt >10km Light Thunderstorm Rain 2.03mm precipitation Few Clouds 7000ft
Broken Clouds 10000ft
Overcast 12000ft
1023 - KDFW 281453Z 07012G21KT 8SM -TSRA FEW070 BKN100CB OVC120 19/17 A3024 RMK AO2 TSE24B30 SLP233 OCNL LTGIC NE-SE TS NE-SE MOV SE P0008 60068 T01940172 51065 $
VFR 19.4°C / 17.8°C 10º 12kt >10km Light Thunderstorm Rain 1.02mm precipitation Few Clouds 7000ft
Broken Clouds 10000ft
Overcast 12000ft
- KDFW 281430Z 01012KT 9SM -TSRA FEW070 BKN100CB OVC120 19/18 A3027 RMK AO2 TSE24B30 PRESRR OCNL LTGICCG NE-SE TS NE-SE MOV SE P0004 T01940178 $
VFR 19.4°C / 17.2°C 360º 12kt >10km Rain 0.76mm precipitation Few Clouds 7000ft
Broken Clouds 9000ft
Overcast 12000ft
- KDFW 281424Z 36012KT 9SM RA FEW070 BKN090 OVC120 19/17 A3026 RMK AO2 TSE24 PRESRR OCNL LTGICCG DSNT SE TS MOVD SE CB DSNT SE MOV SE P0003 T01940172 $
MVFR 19.4°C / 17.2°C 20º 14kt Gust 23kt. Wind Shift present. 6400m Heavy Thunderstorm Rain Mist 11.18mm precipitation Few Clouds 1000ft
Broken Clouds 5000ft
Overcast 10000ft
1021 - KDFW 281353Z 02014G23KT 4SM +TSRA BR FEW010 BKN050CB OVC100 19/17 A3020 RMK AO2 PK WND 02041/1257 WSHFT 1251 SLP218 FRQ LTGICCG ALQDS TS ALQDS MOV SE P0044 T01940172 $
MVFR 18.9°C / 17.2°C 50º 23kt Gust 34kt. Wind Shift present. 6400m Thunderstorm Rain Mist 8.64mm precipitation Scattered Clouds 2400ft
Broken Clouds 5000ft
Overcast 9000ft
- KDFW 281316Z 05023G34KT 4SM TSRA BR SCT024 BKN050CB OVC090 19/17 A3009 RMK AO2 PK WND 02041/1257 WSHFT 1251 FRQ LTGICCG ALQDS TS ALQDS MOV SE P0034 T01890172 $
IFR 18.9°C / 18.3°C 20º 27kt Gust 41kt 2800m. Runway 17C: Visual range is variable from 427m up to more than 1829m. Heavy Thunderstorm Rain Mist 0.76mm precipitation Scattered Clouds 3000ft
Broken Clouds 4500ft
Overcast 6000ft
- KDFW 281257Z 02027G41KT 1 3/4SM R17C/1400VP6000FT +TSRA BR SCT030 BKN045CB OVC060 19/18 A3013 RMK AO2 PK WND 02041/1257 FRQ LTGICCG ALQDS TS ALQDS MOV SE P0003 T01890183 $
MVFR 19.4°C / 17.8°C 20º 13kt Gust 28kt. Wind Shift present. 4800m Heavy Thunderstorm Rain Mist 3.00mm precipitation Few Clouds 2400ft
Broken Clouds 4900ft
Broken Clouds 7500ft
1016 - KDFW 281153Z 02013G28KT 3SM +TSRA BR FEW024 BKN049CB BKN075 19/18 A3004 RMK AO2 PK WND 36066/1056 WSHFT 1040 SLP165 CONS LTGIC ALQDS TS ALQDS MOV SE P0101 60115 70143 T01940178 10278 20178 53035 $
MVFR 18.9°C / 17.8°C 30º 23kt Gust 42kt. Wind Shift present. 4800m Heavy Thunderstorm Rain Mist 3.00mm precipitation Scattered Clouds 2400ft
Overcast 4400ft
- KDFW 281138Z 03023G42KT 3SM +TSRA BR SCT024CB OVC044 19/18 A3004 RMK AO2 PK WND 36066/1056 WSHFT 1040 CONS LTGIC ALQDS TS ALQDS MOV SE P0087 T01890178 $
IFR 17.8°C / 17.8°C 10º 38kt Gust 63kt. Wind Shift present. 2400m. Runway 17C: Visual range is variable from 1067m up to more than 1829m. Heavy Thunderstorm Rain Mist Squalls 3.00mm precipitation Scattered Clouds 1000ft
Overcast 2400ft
- KDFW 281120Z 01038G63KT 1 1/2SM R17C/3500VP6000FT +TSRA BR SQ SCT010 OVC024CB 18/18 A3000 RMK AO2 PK WND 36066/1056 WSHFT 1040 CONS LTGIC ALQDS TS ALQDS MOV SE P0078 T01780178 $
IFR 17.8°C / 17.8°C 10º 37kt Gust 62kt. Wind Shift present. 1600m. Runway 17C: Visual range is variable from 610m up to more than 1829m. Heavy Thunderstorm Rain Mist Squalls 3.00mm precipitation Overcast 1000ft - KDFW 281109Z 01037G62KT 1SM R17C/2000VP6000FT +TSRA BR SQ OVC010CB 18/18 A2999 RMK AO2 PK WND 36066/1056 WSHFT 1040 CONS LTGIC ALQDS TS ALQDS MOV SE P0055 T01780178 $
LIFR 17.8°C / 17.8°C 360º 45kt Gust 66kt. Wind Shift present. Runway 17C: Visual range is variable from 305m up to 853m. Heavy Thunderstorm Rain Fog Squalls 9.14mm precipitation Overcast 1000ft - KDFW 281101Z 36045G66KT 0SM R17C/1000V2800FT +TSRA FG SQ OVC010CB 18/18 A2995 RMK AO2 PK WND 36066/1056 WSHFT 1040 PRESFR CONS LTGIC ALQDS TS ALQDS MOV SE P0036 T01780178
LIFR 17.8°C / 17.2°C 360º 49kt Gust 66kt. Wind Shift present. Runway 17C: Visual range is variable from 305m up to 671m. Heavy Thunderstorm Rain Fog Squalls 3.56mm precipitation Overcast 1000ft - KDFW 281056Z 36049G66KT 0SM R17C/1000V2200FT +TSRA FG SQ OVC010CB 18/17 A2997 RMK AO2 PK WND 36066/1056 WSHFT 1040 LTG DSNT ALQDS P0014 T01780172
MVFR 22.8°C / 20°C 350º 42kt Gust 57kt 8000m. Runway 17C: Visual range is variable from 914m up to more than 1829m. Thunderstorm Rain Squalls 0.13mm precipitation Broken Clouds 1000ft
Overcast 1400ft
- KDFW 281045Z 35042G57KT 5SM R17C/3000VP6000FT TSRA SQ BKN010 OVC014CB 23/20 A3001 RMK AO2 PK WND 35057/1045 RAB43 TSB31 CONS LTGIC ALQDS TS ALQDS MOV SE P0000 T02280200
MVFR 26.7°C / 25°C 140º 7kt Gust 15kt >10km in the Vicinity Thunderstorm Broken Clouds 1200ft
Broken Clouds 1700ft
Overcast 3300ft
- KDFW 281025Z 14007G15KT 7SM VCTS BKN012 BKN017 OVC033 27/25 A2991 RMK AO2 OCNL LTGIC DSNT NW-E CB DSNT NW-E MOV SE T02670250
MVFR 26.7°C / 25°C 130º 6kt Gust 17kt >10km - Broken Clouds 1200ft
Broken Clouds 1700ft
Overcast 3500ft
- KDFW 281021Z 13006G17KT 7SM BKN012 BKN017 OVC035 27/25 A2991 RMK AO2 OCNL LTGIC DSNT NW-E CB DSNT NW-E MOV SE T02670250
VFR 26.1°C / 24.4°C 110º 8kt >10km - Few Clouds 4200ft
Scattered Clouds 5000ft
Scattered Clouds 25000ft
1012 - KDFW 280953Z 11008KT 7SM FEW042 SCT050 SCT250 26/24 A2993 RMK AO2 LTG DSNT NW-NE SLP123 T02610244
VFR 27.2°C / 25°C 130º 12kt >10km - Broken Clouds 3600ft
Overcast 4500ft
1012 - KDFW 280853Z 13012KT 7SM BKN036 OVC045 27/25 A2994 RMK AO2 SLP127 T02720250 58012
VFR 26.1°C / 24.4°C 130º 6kt >10km - Few Clouds 25000ft 1013 - KDFW 280753Z 13006KT 8SM FEW250 26/24 A2997 RMK AO2 SLP139 T02610244
VFR 26.7°C / 23.9°C 120º 7kt >10km - Few Clouds 2300ft
Few Clouds 25000ft
1013 - KDFW 280653Z 12007KT 9SM FEW023 FEW250 27/24 A2997 RMK AO2 SLP137 T02670239
VFR 27.2°C / 23.9°C 120º 9kt >10km - Few Clouds 2300ft
Scattered Clouds 25000ft
- KDFW 280629Z 12009KT 9SM FEW023 SCT250 27/24 A2997 RMK AO2 T02720239
MVFR 27.8°C / 23.9°C 120º 8kt >10km - Broken Clouds 2300ft
Overcast 25000ft
1014 - KDFW 280553Z 12008KT 10SM BKN023 OVC250 28/24 A2997 RMK AO2 SLP140 60028 T02780239 10294 20250 403560233 53005
MVFR 27.8°C / 22.8°C 110º 7kt >10km - Broken Clouds 2600ft
Overcast 17000ft
1013 - KDFW 280453Z 11007KT 10SM BKN026 OVC170 28/23 A2996 RMK AO2 SLP136 T02780228

VFR

18.9°C / 16.7°C

[More]
Wind 120º 26kt Gust 39kt
Visibility >10km
Weather in the Vicinity Thunderstorm 2.03mm precipitation
Clouds Few Clouds 4500ft
Scattered Clouds 9000ft
Broken Clouds 12000ft
Broken Clouds 15000ft
Pressure 1017
Change -
Raw KDFW 281553Z 12026G39KT 10SM VCTS FEW045 SCT090 BKN120 BKN150 19/17 A3008 RMK AO2 PK WND 11040/1537 RAE52 TSE27E41 SLP178 OCNL LTGIC DSNT NE-SE-SW CB DSNT NE-SE-SW MOV SE P0008 T01890167 $

VFR

18.9°C / 16.7°C

[More]
Wind 90º 21kt Gust 37kt
Visibility >10km
Weather Light Rain 1.78mm precipitation
Clouds Few Clouds 7000ft
Broken Clouds 9500ft
Overcast 12000ft
Pressure
Change -
Raw KDFW 281527Z 09021G37KT 9SM -RA FEW070 BKN095 OVC120 19/17 A3014 RMK AO2 PK WND 08037/1527 TSE27 PRESFR OCNL LTGIC DSNT NE-SE TS MOVD SE CB DSNT NE-SE MOV SE P0007 T01890167 $

VFR

19.4°C / 17.2°C

[More]
Wind 70º 12kt Gust 21kt
Visibility >10km
Weather Light Thunderstorm Rain 2.03mm precipitation
Clouds Few Clouds 7000ft
Broken Clouds 10000ft
Overcast 12000ft
Pressure 1023
Change -
Raw KDFW 281453Z 07012G21KT 8SM -TSRA FEW070 BKN100CB OVC120 19/17 A3024 RMK AO2 TSE24B30 SLP233 OCNL LTGIC NE-SE TS NE-SE MOV SE P0008 60068 T01940172 51065 $

VFR

19.4°C / 17.8°C

[More]
Wind 10º 12kt
Visibility >10km
Weather Light Thunderstorm Rain 1.02mm precipitation
Clouds Few Clouds 7000ft
Broken Clouds 10000ft
Overcast 12000ft
Pressure
Change -
Raw KDFW 281430Z 01012KT 9SM -TSRA FEW070 BKN100CB OVC120 19/18 A3027 RMK AO2 TSE24B30 PRESRR OCNL LTGICCG NE-SE TS NE-SE MOV SE P0004 T01940178 $

VFR

19.4°C / 17.2°C

[More]
Wind 360º 12kt
Visibility >10km
Weather Rain 0.76mm precipitation
Clouds Few Clouds 7000ft
Broken Clouds 9000ft
Overcast 12000ft
Pressure
Change -
Raw KDFW 281424Z 36012KT 9SM RA FEW070 BKN090 OVC120 19/17 A3026 RMK AO2 TSE24 PRESRR OCNL LTGICCG DSNT SE TS MOVD SE CB DSNT SE MOV SE P0003 T01940172 $

MVFR

19.4°C / 17.2°C

[More]
Wind 20º 14kt Gust 23kt. Wind Shift present.
Visibility 6400m
Weather Heavy Thunderstorm Rain Mist 11.18mm precipitation
Clouds Few Clouds 1000ft
Broken Clouds 5000ft
Overcast 10000ft
Pressure 1021
Change -
Raw KDFW 281353Z 02014G23KT 4SM +TSRA BR FEW010 BKN050CB OVC100 19/17 A3020 RMK AO2 PK WND 02041/1257 WSHFT 1251 SLP218 FRQ LTGICCG ALQDS TS ALQDS MOV SE P0044 T01940172 $

MVFR

18.9°C / 17.2°C

[More]
Wind 50º 23kt Gust 34kt. Wind Shift present.
Visibility 6400m
Weather Thunderstorm Rain Mist 8.64mm precipitation
Clouds Scattered Clouds 2400ft
Broken Clouds 5000ft
Overcast 9000ft
Pressure
Change -
Raw KDFW 281316Z 05023G34KT 4SM TSRA BR SCT024 BKN050CB OVC090 19/17 A3009 RMK AO2 PK WND 02041/1257 WSHFT 1251 FRQ LTGICCG ALQDS TS ALQDS MOV SE P0034 T01890172 $

IFR

18.9°C / 18.3°C

[More]
Wind 20º 27kt Gust 41kt
Visibility 2800m. Runway 17C: Visual range is variable from 427m up to more than 1829m.
Weather Heavy Thunderstorm Rain Mist 0.76mm precipitation
Clouds Scattered Clouds 3000ft
Broken Clouds 4500ft
Overcast 6000ft
Pressure
Change -
Raw KDFW 281257Z 02027G41KT 1 3/4SM R17C/1400VP6000FT +TSRA BR SCT030 BKN045CB OVC060 19/18 A3013 RMK AO2 PK WND 02041/1257 FRQ LTGICCG ALQDS TS ALQDS MOV SE P0003 T01890183 $

MVFR

19.4°C / 17.8°C

[More]
Wind 20º 13kt Gust 28kt. Wind Shift present.
Visibility 4800m
Weather Heavy Thunderstorm Rain Mist 3.00mm precipitation
Clouds Few Clouds 2400ft
Broken Clouds 4900ft
Broken Clouds 7500ft
Pressure 1016
Change -
Raw KDFW 281153Z 02013G28KT 3SM +TSRA BR FEW024 BKN049CB BKN075 19/18 A3004 RMK AO2 PK WND 36066/1056 WSHFT 1040 SLP165 CONS LTGIC ALQDS TS ALQDS MOV SE P0101 60115 70143 T01940178 10278 20178 53035 $

MVFR

18.9°C / 17.8°C

[More]
Wind 30º 23kt Gust 42kt. Wind Shift present.
Visibility 4800m
Weather Heavy Thunderstorm Rain Mist 3.00mm precipitation
Clouds Scattered Clouds 2400ft
Overcast 4400ft
Pressure
Change -
Raw KDFW 281138Z 03023G42KT 3SM +TSRA BR SCT024CB OVC044 19/18 A3004 RMK AO2 PK WND 36066/1056 WSHFT 1040 CONS LTGIC ALQDS TS ALQDS MOV SE P0087 T01890178 $

IFR

17.8°C / 17.8°C

[More]
Wind 10º 38kt Gust 63kt. Wind Shift present.
Visibility 2400m. Runway 17C: Visual range is variable from 1067m up to more than 1829m.
Weather Heavy Thunderstorm Rain Mist Squalls 3.00mm precipitation
Clouds Scattered Clouds 1000ft
Overcast 2400ft
Pressure
Change -
Raw KDFW 281120Z 01038G63KT 1 1/2SM R17C/3500VP6000FT +TSRA BR SQ SCT010 OVC024CB 18/18 A3000 RMK AO2 PK WND 36066/1056 WSHFT 1040 CONS LTGIC ALQDS TS ALQDS MOV SE P0078 T01780178 $

IFR

17.8°C / 17.8°C

[More]
Wind 10º 37kt Gust 62kt. Wind Shift present.
Visibility 1600m. Runway 17C: Visual range is variable from 610m up to more than 1829m.
Weather Heavy Thunderstorm Rain Mist Squalls 3.00mm precipitation
Clouds Overcast 1000ft
Pressure
Change -
Raw KDFW 281109Z 01037G62KT 1SM R17C/2000VP6000FT +TSRA BR SQ OVC010CB 18/18 A2999 RMK AO2 PK WND 36066/1056 WSHFT 1040 CONS LTGIC ALQDS TS ALQDS MOV SE P0055 T01780178 $

LIFR

17.8°C / 17.8°C

[More]
Wind 360º 45kt Gust 66kt. Wind Shift present.
Visibility Runway 17C: Visual range is variable from 305m up to 853m.
Weather Heavy Thunderstorm Rain Fog Squalls 9.14mm precipitation
Clouds Overcast 1000ft
Pressure
Change -
Raw KDFW 281101Z 36045G66KT 0SM R17C/1000V2800FT +TSRA FG SQ OVC010CB 18/18 A2995 RMK AO2 PK WND 36066/1056 WSHFT 1040 PRESFR CONS LTGIC ALQDS TS ALQDS MOV SE P0036 T01780178

LIFR

17.8°C / 17.2°C

[More]
Wind 360º 49kt Gust 66kt. Wind Shift present.
Visibility Runway 17C: Visual range is variable from 305m up to 671m.
Weather Heavy Thunderstorm Rain Fog Squalls 3.56mm precipitation
Clouds Overcast 1000ft
Pressure
Change -
Raw KDFW 281056Z 36049G66KT 0SM R17C/1000V2200FT +TSRA FG SQ OVC010CB 18/17 A2997 RMK AO2 PK WND 36066/1056 WSHFT 1040 LTG DSNT ALQDS P0014 T01780172

MVFR

22.8°C / 20°C

[More]
Wind 350º 42kt Gust 57kt
Visibility 8000m. Runway 17C: Visual range is variable from 914m up to more than 1829m.
Weather Thunderstorm Rain Squalls 0.13mm precipitation
Clouds Broken Clouds 1000ft
Overcast 1400ft
Pressure
Change -
Raw KDFW 281045Z 35042G57KT 5SM R17C/3000VP6000FT TSRA SQ BKN010 OVC014CB 23/20 A3001 RMK AO2 PK WND 35057/1045 RAB43 TSB31 CONS LTGIC ALQDS TS ALQDS MOV SE P0000 T02280200

MVFR

26.7°C / 25°C

[More]
Wind 140º 7kt Gust 15kt
Visibility >10km
Weather in the Vicinity Thunderstorm
Clouds Broken Clouds 1200ft
Broken Clouds 1700ft
Overcast 3300ft
Pressure
Change -
Raw KDFW 281025Z 14007G15KT 7SM VCTS BKN012 BKN017 OVC033 27/25 A2991 RMK AO2 OCNL LTGIC DSNT NW-E CB DSNT NW-E MOV SE T02670250

MVFR

26.7°C / 25°C

[More]
Wind 130º 6kt Gust 17kt
Visibility >10km
Weather -
Clouds Broken Clouds 1200ft
Broken Clouds 1700ft
Overcast 3500ft
Pressure
Change -
Raw KDFW 281021Z 13006G17KT 7SM BKN012 BKN017 OVC035 27/25 A2991 RMK AO2 OCNL LTGIC DSNT NW-E CB DSNT NW-E MOV SE T02670250

VFR

26.1°C / 24.4°C

[More]
Wind 110º 8kt
Visibility >10km
Weather -
Clouds Few Clouds 4200ft
Scattered Clouds 5000ft
Scattered Clouds 25000ft
Pressure 1012
Change -
Raw KDFW 280953Z 11008KT 7SM FEW042 SCT050 SCT250 26/24 A2993 RMK AO2 LTG DSNT NW-NE SLP123 T02610244

VFR

27.2°C / 25°C

[More]
Wind 130º 12kt
Visibility >10km
Weather -
Clouds Broken Clouds 3600ft
Overcast 4500ft
Pressure 1012
Change -
Raw KDFW 280853Z 13012KT 7SM BKN036 OVC045 27/25 A2994 RMK AO2 SLP127 T02720250 58012

VFR

26.1°C / 24.4°C

[More]
Wind 130º 6kt
Visibility >10km
Weather -
Clouds Few Clouds 25000ft
Pressure 1013
Change -
Raw KDFW 280753Z 13006KT 8SM FEW250 26/24 A2997 RMK AO2 SLP139 T02610244

VFR

26.7°C / 23.9°C

[More]
Wind 120º 7kt
Visibility >10km
Weather -
Clouds Few Clouds 2300ft
Few Clouds 25000ft
Pressure 1013
Change -
Raw KDFW 280653Z 12007KT 9SM FEW023 FEW250 27/24 A2997 RMK AO2 SLP137 T02670239

VFR

27.2°C / 23.9°C

[More]
Wind 120º 9kt
Visibility >10km
Weather -
Clouds Few Clouds 2300ft
Scattered Clouds 25000ft
Pressure
Change -
Raw KDFW 280629Z 12009KT 9SM FEW023 SCT250 27/24 A2997 RMK AO2 T02720239

MVFR

27.8°C / 23.9°C

[More]
Wind 120º 8kt
Visibility >10km
Weather -
Clouds Broken Clouds 2300ft
Overcast 25000ft
Pressure 1014
Change -
Raw KDFW 280553Z 12008KT 10SM BKN023 OVC250 28/24 A2997 RMK AO2 SLP140 60028 T02780239 10294 20250 403560233 53005

MVFR

27.8°C / 22.8°C

[More]
Wind 110º 7kt
Visibility >10km
Weather -
Clouds Broken Clouds 2600ft
Overcast 17000ft
Pressure 1013
Change -
Raw KDFW 280453Z 11007KT 10SM BKN026 OVC170 28/23 A2996 RMK AO2 SLP136 T02780228

TAF for Coppell (KDFW)

From till


From till Wind 30º 15kt. Visibility 9700m. Light Thunderstorm Rain . Scattered Clouds 2500ft. Broken Clouds 10000ft.
From till Wind 120º 9kt. Visibility 9700m. in the Vicinity Showers . Broken Clouds 4500ft.
From till Wind 90º 9kt. Visibility 9700m. in the Vicinity Thunderstorm . Overcast 6000ft.
Temporarly from till Visibility 1600m. Thunderstorm Rain . Broken Clouds 2500ft.
From till Wind 110º 4kt. Visibility 9700m. Mist in the Vicinity Showers . Broken Clouds 2000ft.

Raw: KDFW 281505Z 2815/2918 03015KT P6SM -TSRA SCT025CB BKN100 FM281800 12009KT P6SM VCSH BKN045 FM290500 09009KT P6SM VCTS OVC060CB TEMPO 2906/2910 1SM TSRA BKN025CB FM291100 11004KT 6SM BR VCSH BKN020

rainNOW: Rain nowcast for Coppell and surroundings (25km radius)

0.0 mm
0.0 mm
0.0 mm
0.0 mm
0.0 mm
0.0 mm
0.0 mm
0.0 mm
0.0 mm
0.0 mm
0.0 mm
0.0 mm

Radar and precipitation nowcast for Coppell

Drizzle
Light
Moderate
Heavy
Very Heavy
Hail

The location marker is placed on Coppell. This animation shows the precipitation radar for the selected time range, as well as a 1h forecast. Orange crosses indicate lightning. Data provided by nowcast.de (available in USA, Europe, Australia). Drizzle or light snow fall might be invisible for the radar. Precipitation intensity is colour coded, ranging from turquoise to red.

Current satellite images for Coppell, United States

The location marker is placed on Coppell. [More]

The real-time satellite image combines visible light during daytime with infrared radiation during nighttime. At night, the image is not dark as infrared radiation can detect temperature differences. Unfortunately, low clouds and fog are difficult to distinguish from ground temperatures and thus can be almost invisible during the night. Meteosat satellite images for Europe are updated in real-time every 5 minutes. GOES-16/GOES-17 (North & South America) and Himawari (Asia) images update every 10 minutes.

Precipitation is estimated from radar and satellites. Precipitation estimates from satellites are less accurate at night than during daytime.

© 2024 meteoblue, NOAA Satellites GOES-16 and EUMETSAT. Lightning data provided by nowcast.

Back to top
×
Hey there,
seems like you are using an ad blocker.

Advertising is essential to maintain our free website with unique detail and accuracy.

Please whitelist www.meteoblue.com on your ad blocker or consider buying one of our products:

Already have a subscription?
Then please login.